createdAt,value
2017-01-25T00:00:42.738Z,16.95
2017-01-25T00:01:53.438Z,16.97
2017-01-25T00:03:04.004Z,16.95
2017-01-25T00:04:14.461Z,16.98
2017-01-25T00:05:25.165Z,16.94
2017-01-25T00:06:35.073Z,16.95
2017-01-25T00:07:45.800Z,16.97
2017-01-25T00:08:56.820Z,16.92
2017-01-25T00:10:07.525Z,16.92
2017-01-25T00:11:17.845Z,16.97
2017-01-25T00:12:28.545Z,16.94
2017-01-25T00:13:39.258Z,16.84
2017-01-25T00:14:50.212Z,16.91
2017-01-25T00:16:00.529Z,16.97
2017-01-25T00:17:11.230Z,16.92
2017-01-25T00:18:21.557Z,16.98
2017-01-25T00:19:32.289Z,16.89
2017-01-25T00:20:43.233Z,16.89
2017-01-25T00:21:53.560Z,16.97
2017-01-25T00:23:03.859Z,16.95
2017-01-25T00:24:14.561Z,17.05
2017-01-25T00:25:25.265Z,17.01
2017-01-25T00:26:36.254Z,16.95
2017-01-25T00:27:46.577Z,16.95
2017-01-25T00:28:57.287Z,17.01
2017-01-25T00:30:07.597Z,17.05
2017-01-25T00:31:17.927Z,17.01
2017-01-25T00:32:28.088Z,17.05
2017-01-25T00:33:38.805Z,16.92
2017-01-25T00:34:49.127Z,17.04
2017-01-25T00:35:59.438Z,17.12
2017-01-25T00:37:09.747Z,16.97
2017-01-25T00:38:19.921Z,17.01
2017-01-25T00:39:30.667Z,16.95
2017-01-25T00:40:40.974Z,16.98
2017-01-25T00:41:50.497Z,16.94
2017-01-25T00:43:00.810Z,16.92
2017-01-25T00:44:11.017Z,16.95
2017-01-25T00:45:21.323Z,16.97
2017-01-25T00:46:31.645Z,16.99
2017-01-25T00:47:41.556Z,17.01
2017-01-25T00:48:52.263Z,17.04
2017-01-25T00:50:03.277Z,16.99
2017-01-25T00:51:13.187Z,16.95
2017-01-25T00:52:23.495Z,16.95
2017-01-25T00:53:33.844Z,17.01
2017-01-25T00:54:44.155Z,17.02
2017-01-25T00:55:55.121Z,16.99
2017-01-25T00:57:05.848Z,16.99
2017-01-25T00:58:16.579Z,16.97
2017-01-25T00:59:27.290Z,17.04
2017-01-25T01:00:37.601Z,17.01
2017-01-25T01:01:48.547Z,17.01
2017-01-25T01:02:59.246Z,17.14
2017-01-25T01:04:09.956Z,17.05
2017-01-25T01:05:20.712Z,17.1
2017-01-25T01:06:31.418Z,17.1
2017-01-25T01:07:41.972Z,17.13
2017-01-25T01:08:52.275Z,17.09
2017-01-25T01:10:02.592Z,17.01
2017-01-25T01:11:12.903Z,16.98
2017-01-25T01:12:23.225Z,16.99
2017-01-25T01:13:33.398Z,17.05
2017-01-25T01:14:43.316Z,16.98
2017-01-25T01:15:54.026Z,17.01
2017-01-25T01:17:04.395Z,16.97
2017-01-25T01:18:15.132Z,16.99
2017-01-25T01:19:25.718Z,17.01
2017-01-25T01:20:36.027Z,16.97
2017-01-25T01:21:46.738Z,16.95
2017-01-25T01:22:57.044Z,16.97
2017-01-25T01:24:06.568Z,17.02
2017-01-25T01:25:17.523Z,16.95
2017-01-25T01:26:28.234Z,16.95
2017-01-25T01:27:38.929Z,16.89
2017-01-25T01:28:48.845Z,16.95
2017-01-25T01:29:58.365Z,17.02
2017-01-25T01:31:08.529Z,16.97
2017-01-25T01:32:18.865Z,16.94
2017-01-25T01:33:28.780Z,16.99
2017-01-25T01:34:39.095Z,17.1
2017-01-25T01:35:49.005Z,16.99
2017-01-25T01:36:59.167Z,16.99
2017-01-25T01:38:09.489Z,16.94
2017-01-25T01:39:19.401Z,16.97
2017-01-25T01:40:30.673Z,16.97
2017-01-25T01:41:40.980Z,16.98
2017-01-25T01:42:51.200Z,16.98
2017-01-25T01:44:01.124Z,16.98
2017-01-25T01:45:11.466Z,17.01
2017-01-25T01:46:21.802Z,16.98
2017-01-25T01:47:32.503Z,17.05
2017-01-25T01:48:43.050Z,16.95
2017-01-25T01:49:53.360Z,16.98
2017-01-25T01:51:04.246Z,17.01
2017-01-25T01:52:14.594Z,16.97
2017-01-25T01:53:24.915Z,16.99
2017-01-25T01:54:35.483Z,17.07
2017-01-25T01:55:46.186Z,17.04
2017-01-25T01:56:56.493Z,16.99
2017-01-25T01:58:06.804Z,17.14
2017-01-25T01:59:17.505Z,17.09
2017-01-25T02:00:27.725Z,16.98
2017-01-25T02:01:37.648Z,17.02
2017-01-25T02:02:48.349Z,16.98
2017-01-25T02:03:57.860Z,16.98
2017-01-25T02:05:07.370Z,16.92
2017-01-25T02:06:17.555Z,17.04
2017-01-25T02:07:27.469Z,16.92
2017-01-25T02:08:37.405Z,16.94
2017-01-25T02:09:48.117Z,16.97
2017-01-25T02:10:58.049Z,16.98
2017-01-25T02:12:08.655Z,16.98
2017-01-25T02:13:19.374Z,16.98
2017-01-25T02:14:29.671Z,17.02
2017-01-25T02:15:40.364Z,16.98
2017-01-25T02:16:49.878Z,16.98
2017-01-25T02:18:00.840Z,16.95
2017-01-25T02:19:11.161Z,16.98
2017-01-25T02:20:21.460Z,16.98
2017-01-25T02:21:31.368Z,16.97
2017-01-25T02:22:42.076Z,16.97
2017-01-25T02:23:51.899Z,16.89
2017-01-25T02:25:02.206Z,16.95
2017-01-25T02:26:12.919Z,16.99
2017-01-25T02:27:23.256Z,17.01
2017-01-25T02:28:33.188Z,17.01
2017-01-25T02:29:43.822Z,16.97
2017-01-25T02:30:54.533Z,16.95
2017-01-25T02:32:04.839Z,16.95
2017-01-25T02:33:15.549Z,16.95
2017-01-25T02:34:25.854Z,16.94
2017-01-25T02:35:36.406Z,16.95
2017-01-25T02:36:46.731Z,16.98
2017-01-25T02:37:57.483Z,17.04
2017-01-25T02:39:07.779Z,16.97
2017-01-25T02:40:17.699Z,16.98
2017-01-25T02:41:28.648Z,16.97
2017-01-25T02:42:39.402Z,16.95
2017-01-25T02:43:49.713Z,16.91
2017-01-25T02:44:59.228Z,16.99
2017-01-25T02:46:09.140Z,16.98
2017-01-25T02:47:19.700Z,16.98
2017-01-25T02:48:30.411Z,17.01
2017-01-25T02:49:41.099Z,17.04
2017-01-25T02:50:51.402Z,16.95
2017-01-25T02:52:01.715Z,16.92
2017-01-25T02:53:12.274Z,16.95
2017-01-25T02:54:23.211Z,16.97
2017-01-25T02:55:33.927Z,16.97
2017-01-25T02:56:44.230Z,17.02
2017-01-25T02:57:54.556Z,16.98
2017-01-25T02:59:05.511Z,16.97
2017-01-25T03:00:15.824Z,16.98
2017-01-25T03:01:26.125Z,17.05
2017-01-25T03:02:36.439Z,17.1
2017-01-25T03:03:46.746Z,17.02
2017-01-25T03:04:57.757Z,16.95
2017-01-25T03:06:08.068Z,16.99
2017-01-25T03:07:18.399Z,17.05
2017-01-25T03:08:28.710Z,17.04
2017-01-25T03:09:39.023Z,17.01
2017-01-25T03:10:49.187Z,16.95
2017-01-25T03:11:58.701Z,16.95
2017-01-25T03:13:09.405Z,16.92
2017-01-25T03:14:19.744Z,17.04
2017-01-25T03:15:30.041Z,16.98
2017-01-25T03:16:40.256Z,16.99
2017-01-25T03:17:50.960Z,16.97
2017-01-25T03:19:00.876Z,16.98
2017-01-25T03:20:11.584Z,17.01
2017-01-25T03:21:21.909Z,16.95
2017-01-25T03:22:32.910Z,16.99
2017-01-25T03:23:43.219Z,17.02
2017-01-25T03:24:53.130Z,17.07
2017-01-25T03:26:03.444Z,17.01
2017-01-25T03:27:14.159Z,16.95
2017-01-25T03:28:25.114Z,16.98
2017-01-25T03:29:35.886Z,17.07
2017-01-25T03:30:46.192Z,17.1
2017-01-25T03:31:56.490Z,16.95
2017-01-25T03:33:07.222Z,17.01
2017-01-25T03:34:17.785Z,16.98
2017-01-25T03:35:28.519Z,17.02
2017-01-25T03:36:39.216Z,17.01
2017-01-25T03:37:49.530Z,16.97
2017-01-25T03:38:59.841Z,17.02
2017-01-25T03:40:10.808Z,16.99
2017-01-25T03:41:20.326Z,17.04
2017-01-25T03:42:31.040Z,16.92
2017-01-25T03:43:41.741Z,16.99
2017-01-25T03:44:52.054Z,16.99
2017-01-25T03:46:02.727Z,16.94
2017-01-25T03:47:13.093Z,16.99
2017-01-25T03:48:23.405Z,16.95
2017-01-25T03:49:33.709Z,17.02
2017-01-25T03:50:44.035Z,16.95
2017-01-25T03:51:54.653Z,17.07
2017-01-25T03:53:04.951Z,16.98
2017-01-25T03:54:15.261Z,16.97
2017-01-25T03:55:25.565Z,16.99
2017-01-25T03:56:36.313Z,16.95
2017-01-25T03:57:46.871Z,16.95
2017-01-25T03:58:56.778Z,16.95
2017-01-25T04:00:06.691Z,16.98
2017-01-25T04:01:17.002Z,16.95
2017-01-25T04:02:27.337Z,17.01
2017-01-25T04:03:38.301Z,17.01
2017-01-25T04:04:48.214Z,16.98
2017-01-25T04:05:58.529Z,16.97
2017-01-25T04:07:09.216Z,17.04
2017-01-25T04:08:19.544Z,17.05
2017-01-25T04:09:30.725Z,16.98
2017-01-25T04:10:40.634Z,17.02
2017-01-25T04:11:50.550Z,17.01
2017-01-25T04:13:00.458Z,16.98
2017-01-25T04:14:11.172Z,17.04
2017-01-25T04:15:21.769Z,16.98
2017-01-25T04:16:31.705Z,16.98
2017-01-25T04:17:42.407Z,17.07
2017-01-25T04:18:52.713Z,16.97
2017-01-25T04:20:03.024Z,17.05
2017-01-25T04:21:13.584Z,17.1
2017-01-25T04:22:23.495Z,17.01
2017-01-25T04:23:34.432Z,16.97
2017-01-25T04:24:44.341Z,16.98
2017-01-25T04:25:54.260Z,17.04
2017-01-25T04:27:05.258Z,17.05
2017-01-25T04:28:15.571Z,17.01
2017-01-25T04:29:25.878Z,16.95
2017-01-25T04:30:36.204Z,16.98
2017-01-25T04:31:46.899Z,17.02
2017-01-25T04:32:57.846Z,16.97
2017-01-25T04:34:08.550Z,16.99
2017-01-25T04:35:18.474Z,17.04
2017-01-25T04:36:28.791Z,16.99
2017-01-25T04:37:39.088Z,16.94
2017-01-25T04:38:49.707Z,16.98
2017-01-25T04:40:00.413Z,16.97
2017-01-25T04:41:10.759Z,17.04
2017-01-25T04:42:21.467Z,17.01
2017-01-25T04:43:30.985Z,17.07
2017-01-25T04:44:41.555Z,17.05
2017-01-25T04:45:51.462Z,16.95
2017-01-25T04:47:01.767Z,17.01
2017-01-25T04:48:12.085Z,16.99
2017-01-25T04:49:22.405Z,17.1
2017-01-25T04:50:32.579Z,16.99
2017-01-25T04:51:42.098Z,16.98
2017-01-25T04:52:52.024Z,17.02
2017-01-25T04:54:02.752Z,17.02
2017-01-25T04:55:13.067Z,17.05
2017-01-25T04:56:24.019Z,17.02
2017-01-25T04:57:33.926Z,17.04
2017-01-25T04:58:45.081Z,17.05
2017-01-25T04:59:54.990Z,17.04
2017-01-25T05:01:05.292Z,16.99
2017-01-25T05:02:15.115Z,16.97
2017-01-25T05:03:25.028Z,17.05
2017-01-25T05:04:34.152Z,17.12
2017-01-25T05:05:44.851Z,17.1
2017-01-25T05:06:54.765Z,16.92
2017-01-25T05:08:04.928Z,16.97
2017-01-25T05:09:14.849Z,16.98
2017-01-25T05:10:25.547Z,17.04
2017-01-25T05:11:35.859Z,17.05
2017-01-25T05:12:46.564Z,16.97
2017-01-25T05:13:56.444Z,16.97
2017-01-25T05:15:06.752Z,16.98
2017-01-25T05:16:17.077Z,16.98
2017-01-25T05:17:26.607Z,16.95
2017-01-25T05:18:37.329Z,17.02
2017-01-25T05:19:47.916Z,16.95
2017-01-25T05:20:58.626Z,16.97
2017-01-25T05:22:08.931Z,16.95
2017-01-25T05:23:18.856Z,16.84
2017-01-25T05:24:29.180Z,16.95
2017-01-25T05:25:38.962Z,16.94
2017-01-25T05:26:48.877Z,17.01
2017-01-25T05:27:58.392Z,16.99
2017-01-25T05:29:08.694Z,16.92
2017-01-25T05:30:18.613Z,16.95
2017-01-25T05:31:28.391Z,16.97
2017-01-25T05:32:38.716Z,16.95
2017-01-25T05:33:49.026Z,16.91
2017-01-25T05:34:59.351Z,16.92
2017-01-25T05:36:10.065Z,16.94
2017-01-25T05:37:19.855Z,16.91
2017-01-25T05:38:29.771Z,16.83
2017-01-25T05:39:40.485Z,16.84
2017-01-25T05:40:50.398Z,16.84
2017-01-25T05:42:00.699Z,16.87
2017-01-25T05:43:11.253Z,16.84
2017-01-25T05:44:21.569Z,16.84
2017-01-25T05:45:31.886Z,16.92
2017-01-25T05:46:42.590Z,16.89
2017-01-25T05:47:53.297Z,16.86
2017-01-25T05:49:03.455Z,16.8
2017-01-25T05:50:13.377Z,16.89
2017-01-25T05:51:24.091Z,16.91
2017-01-25T05:52:33.607Z,16.91
2017-01-25T05:53:44.316Z,16.86
2017-01-25T05:54:54.933Z,16.86
2017-01-25T05:56:04.890Z,16.94
2017-01-25T05:57:15.591Z,16.92
2017-01-25T05:58:26.286Z,16.83
2017-01-25T05:59:36.209Z,16.98
2017-01-25T06:00:47.220Z,16.99
2017-01-25T06:01:56.751Z,16.97
2017-01-25T06:03:06.267Z,16.95
2017-01-25T06:04:16.174Z,16.95
2017-01-25T06:05:26.487Z,16.98
2017-01-25T06:06:37.035Z,16.98
2017-01-25T06:07:47.353Z,16.94
2017-01-25T06:08:57.661Z,16.97
2017-01-25T06:10:08.379Z,16.92
2017-01-25T06:11:18.305Z,16.83
2017-01-25T06:12:28.865Z,16.83
2017-01-25T06:13:38.814Z,16.92
2017-01-25T06:14:47.939Z,16.98
2017-01-25T06:15:58.644Z,16.95
2017-01-25T06:17:09.356Z,16.98
2017-01-25T06:18:20.311Z,16.92
2017-01-25T06:19:30.215Z,16.94
2017-01-25T06:20:40.923Z,16.97
2017-01-25T06:21:51.646Z,16.97
2017-01-25T06:23:02.362Z,16.95
2017-01-25T06:24:12.951Z,16.99
2017-01-25T06:25:22.475Z,16.97
2017-01-25T06:26:33.243Z,16.95
2017-01-25T06:27:43.559Z,16.98
2017-01-25T06:28:53.873Z,16.97
2017-01-25T06:30:04.046Z,16.98
2017-01-25T06:31:14.814Z,16.97
2017-01-25T06:32:25.521Z,16.98
2017-01-25T06:33:36.224Z,16.99
2017-01-25T06:34:46.143Z,16.95
2017-01-25T06:35:56.319Z,17.01
2017-01-25T06:37:06.621Z,17.09
2017-01-25T06:38:17.322Z,17.02
2017-01-25T06:39:28.036Z,16.98
2017-01-25T06:40:37.950Z,16.99
2017-01-25T06:41:48.561Z,17.05
2017-01-25T06:42:59.323Z,17.05
2017-01-25T06:44:10.033Z,17.05
2017-01-25T06:45:20.346Z,16.97
2017-01-25T06:46:30.663Z,16.99
2017-01-25T06:47:41.283Z,17.05
2017-01-25T06:48:51.582Z,17.1
2017-01-25T06:50:01.509Z,17.16
2017-01-25T06:51:12.230Z,17.12
2017-01-25T06:52:21.745Z,17.12
2017-01-25T06:53:32.367Z,16.98
2017-01-25T06:54:43.104Z,17.02
2017-01-25T06:55:53.041Z,17.04
2017-01-25T06:57:03.759Z,17.07
2017-01-25T06:58:14.102Z,17.07
2017-01-25T06:59:25.125Z,17.01
2017-01-25T07:00:35.828Z,16.98
2017-01-25T07:01:46.154Z,17.09
2017-01-25T07:02:56.859Z,17.01
2017-01-25T07:04:07.172Z,17.09
2017-01-25T07:05:17.784Z,17.07
2017-01-25T07:06:28.100Z,17.07
2017-01-25T07:07:38.804Z,17.14
2017-01-25T07:08:48.718Z,17.07
2017-01-25T07:09:59.034Z,17.16
2017-01-25T07:11:09.662Z,17.1
2017-01-25T07:12:19.582Z,17.09
2017-01-25T07:13:28.740Z,17.07
2017-01-25T07:14:39.062Z,17.1
2017-01-25T07:15:48.993Z,17.07
2017-01-25T07:16:59.611Z,17.12
2017-01-25T07:18:10.363Z,17.14
2017-01-25T07:19:20.729Z,17.12
2017-01-25T07:20:31.502Z,17.13
2017-01-25T07:21:42.240Z,17.07
2017-01-25T07:22:52.891Z,17.05
2017-01-25T07:24:03.287Z,17.1
2017-01-25T07:25:13.637Z,17.1
2017-01-25T07:26:24.415Z,17.1
2017-01-25T07:27:34.764Z,17.12
2017-01-25T07:28:45.343Z,17.07
2017-01-25T07:29:55.659Z,17.16
2017-01-25T07:31:05.605Z,17.07
2017-01-25T07:32:15.940Z,17.14
2017-01-25T07:33:25.899Z,17.13
2017-01-25T07:34:36.474Z,17.16
2017-01-25T07:35:46.831Z,17.1
2017-01-25T07:36:57.740Z,17.14
2017-01-25T07:38:08.084Z,17.09
2017-01-25T07:39:18.812Z,17.16
2017-01-25T07:40:29.372Z,17.14
2017-01-25T07:41:40.099Z,17.09
2017-01-25T07:42:50.463Z,17.19
2017-01-25T07:44:01.329Z,17.04
2017-01-25T07:45:11.710Z,17.09
2017-01-25T07:46:22.753Z,17.04
2017-01-25T07:47:33.564Z,17.17
2017-01-25T07:48:43.910Z,17.16
2017-01-25T07:49:54.279Z,17.1
2017-01-25T07:51:05.026Z,17.14
2017-01-25T07:52:16.033Z,17.1
2017-01-25T07:53:26.366Z,17.1
2017-01-25T07:54:36.701Z,17.16
2017-01-25T07:55:46.635Z,17.14
2017-01-25T07:56:56.198Z,17.07
2017-01-25T07:58:07.209Z,17.07
2017-01-25T07:59:17.973Z,17.13
2017-01-25T08:00:28.757Z,17.14
2017-01-25T08:01:39.076Z,17.14
2017-01-25T08:02:49.439Z,17.14
2017-01-25T08:04:00.079Z,17.14
2017-01-25T08:05:10.415Z,17.09
2017-01-25T08:06:20.731Z,17.17
2017-01-25T08:07:31.483Z,17.16
2017-01-25T08:08:42.227Z,17.09
2017-01-25T08:09:52.489Z,17.1
2017-01-25T08:11:02.821Z,17.12
2017-01-25T08:12:13.554Z,17.14
2017-01-25T08:13:23.889Z,17.07
2017-01-25T08:14:34.223Z,17.1
2017-01-25T08:15:44.824Z,17.1
2017-01-25T08:16:55.176Z,17.12
2017-01-25T08:18:05.909Z,17.09
2017-01-25T08:19:15.840Z,17.1
2017-01-25T08:20:26.612Z,17.12
2017-01-25T08:21:36.847Z,17.1
2017-01-25T08:22:46.775Z,17.2
2017-01-25T08:23:57.109Z,17.22
2017-01-25T08:25:06.356Z,17.17
2017-01-25T08:26:17.063Z,17.19
2017-01-25T08:27:26.849Z,17.17
2017-01-25T08:28:37.566Z,17.19
2017-01-25T08:29:48.369Z,17.19
2017-01-25T08:30:59.114Z,17.17
2017-01-25T08:32:09.833Z,17.16
2017-01-25T08:33:19.666Z,17.16
2017-01-25T08:34:30.429Z,17.19
2017-01-25T08:35:41.336Z,17.16
2017-01-25T08:36:51.656Z,17.14
2017-01-25T08:38:01.969Z,17.14
2017-01-25T08:39:12.165Z,17.17
2017-01-25T08:40:22.496Z,17.22
2017-01-25T08:41:33.234Z,17.16
2017-01-25T08:42:43.949Z,17.23
2017-01-25T08:43:54.274Z,17.22
2017-01-25T08:45:05.293Z,17.22
2017-01-25T08:46:15.609Z,17.2
2017-01-25T08:47:26.333Z,17.22
2017-01-25T08:48:36.652Z,17.27
2017-01-25T08:49:46.991Z,17.23
2017-01-25T08:50:57.658Z,17.31
2017-01-25T08:52:08.023Z,17.27
2017-01-25T08:53:18.353Z,17.24
2017-01-25T08:54:29.095Z,17.23
2017-01-25T08:55:38.623Z,17.24
2017-01-25T08:56:49.264Z,17.22
2017-01-25T08:57:59.987Z,17.31
2017-01-25T08:59:09.906Z,17.31
2017-01-25T09:00:19.860Z,17.28
2017-01-25T09:01:30.167Z,17.24
2017-01-25T09:02:40.115Z,17.23
2017-01-25T09:03:50.442Z,17.23
2017-01-25T09:05:00.793Z,17.24
2017-01-25T09:06:10.733Z,17.23
2017-01-25T09:07:21.758Z,17.28
2017-01-25T09:08:32.086Z,17.34
2017-01-25T09:09:42.417Z,17.28
2017-01-25T09:10:52.368Z,17.24
2017-01-25T09:12:02.689Z,17.31
2017-01-25T09:13:12.876Z,17.34
2017-01-25T09:14:23.187Z,17.28
2017-01-25T09:15:33.907Z,17.27
2017-01-25T09:16:44.636Z,17.34
2017-01-25T09:17:54.608Z,17.3
2017-01-25T09:19:04.566Z,17.39
2017-01-25T09:20:15.293Z,17.38
2017-01-25T09:21:25.651Z,17.35
2017-01-25T09:22:36.376Z,17.38
2017-01-25T09:23:46.937Z,17.44
2017-01-25T09:24:56.854Z,17.44
2017-01-25T09:26:06.841Z,17.49
2017-01-25T09:27:17.558Z,17.35
2017-01-25T09:28:27.873Z,17.37
2017-01-25T09:29:38.463Z,17.34
2017-01-25T09:30:47.978Z,17.38
2017-01-25T09:31:58.710Z,17.42
2017-01-25T09:33:09.432Z,17.38
2017-01-25T09:34:19.358Z,17.35
2017-01-25T09:35:29.959Z,17.38
2017-01-25T09:36:39.886Z,17.46
2017-01-25T09:37:49.819Z,17.49
2017-01-25T09:38:59.755Z,17.52
2017-01-25T09:40:10.476Z,17.44
2017-01-25T09:41:21.056Z,17.5
2017-01-25T09:42:31.383Z,17.49
2017-01-25T09:43:41.713Z,17.49
2017-01-25T09:44:52.105Z,17.44
2017-01-25T09:46:02.573Z,17.41
2017-01-25T09:47:12.755Z,17.5
2017-01-25T09:48:23.072Z,17.44
2017-01-25T09:49:33.396Z,17.52
2017-01-25T09:50:43.325Z,17.52
2017-01-25T09:51:54.025Z,17.49
2017-01-25T09:53:04.654Z,17.52
2017-01-25T09:54:14.577Z,17.57
2017-01-25T09:55:25.130Z,17.49
2017-01-25T09:56:35.457Z,17.49
2017-01-25T09:57:45.786Z,17.5
2017-01-25T09:58:56.106Z,17.5
2017-01-25T10:00:05.673Z,17.47
2017-01-25T10:01:16.419Z,17.57
2017-01-25T10:02:25.946Z,17.52
2017-01-25T10:03:36.523Z,17.52
2017-01-25T10:04:46.874Z,17.52
2017-01-25T10:05:57.192Z,17.52
2017-01-25T10:07:07.134Z,17.53
2017-01-25T10:08:17.853Z,17.5
2017-01-25T10:09:28.093Z,17.65
2017-01-25T10:10:37.670Z,17.66
2017-01-25T10:11:47.978Z,17.65
2017-01-25T10:12:57.894Z,17.54
2017-01-25T10:14:08.228Z,17.66
2017-01-25T10:15:19.208Z,17.66
2017-01-25T10:16:29.141Z,17.66
2017-01-25T10:17:39.854Z,17.66
2017-01-25T10:18:50.184Z,17.65
2017-01-25T10:19:59.316Z,17.65
2017-01-25T10:21:10.331Z,17.57
2017-01-25T10:22:21.066Z,17.63
2017-01-25T10:23:30.980Z,17.68
2017-01-25T10:24:41.323Z,17.68
2017-01-25T10:25:51.639Z,17.69
2017-01-25T10:27:02.265Z,17.65
2017-01-25T10:28:12.198Z,17.73
2017-01-25T10:29:22.918Z,17.73
2017-01-25T10:30:33.229Z,17.76
2017-01-25T10:31:43.536Z,17.75
2017-01-25T10:32:54.078Z,17.84
2017-01-25T10:34:04.781Z,17.84
2017-01-25T10:35:15.492Z,17.79
2017-01-25T10:36:25.801Z,17.82
2017-01-25T10:37:36.169Z,17.88
2017-01-25T10:38:46.333Z,17.76
2017-01-25T10:39:56.884Z,17.87
2017-01-25T10:41:07.232Z,17.9
2017-01-25T10:42:17.552Z,17.86
2017-01-25T10:43:27.092Z,17.79
2017-01-25T10:44:38.049Z,17.78
2017-01-25T10:45:47.987Z,17.69
2017-01-25T10:46:57.913Z,17.73
2017-01-25T10:48:08.659Z,17.84
2017-01-25T10:49:18.990Z,17.84
2017-01-25T10:50:29.218Z,17.76
2017-01-25T10:51:39.936Z,17.78
2017-01-25T10:52:50.249Z,17.69
2017-01-25T10:54:00.173Z,17.76
2017-01-25T10:55:10.883Z,17.72
2017-01-25T10:56:21.849Z,17.86
2017-01-25T10:57:32.565Z,17.79
2017-01-25T10:58:43.308Z,17.86
2017-01-25T10:59:54.261Z,17.79
2017-01-25T11:01:04.611Z,17.76
2017-01-25T11:02:15.210Z,17.82
2017-01-25T11:03:25.935Z,17.8
2017-01-25T11:04:36.249Z,17.88
2017-01-25T11:05:46.573Z,17.84
2017-01-25T11:06:56.514Z,17.91
2017-01-25T11:08:07.472Z,17.86
2017-01-25T11:09:17.785Z,17.84
2017-01-25T11:10:28.502Z,17.84
2017-01-25T11:11:38.822Z,17.86
2017-01-25T11:12:49.542Z,17.9
2017-01-25T11:14:00.496Z,17.87
2017-01-25T11:15:11.218Z,17.91
2017-01-25T11:16:20.742Z,17.91
2017-01-25T11:17:31.065Z,17.86
2017-01-25T11:18:41.775Z,17.93
2017-01-25T11:19:52.342Z,17.9
2017-01-25T11:21:02.665Z,17.95
2017-01-25T11:22:13.371Z,17.97
2017-01-25T11:23:23.304Z,17.93
2017-01-25T11:24:33.241Z,17.9
2017-01-25T11:25:43.807Z,17.91
2017-01-25T11:26:54.530Z,17.91
2017-01-25T11:28:04.868Z,17.93
2017-01-25T11:29:15.190Z,17.91
2017-01-25T11:30:25.906Z,17.94
2017-01-25T11:31:35.683Z,17.91
2017-01-25T11:32:46.396Z,17.93
2017-01-25T11:33:56.726Z,17.93
2017-01-25T11:35:07.057Z,17.9
2017-01-25T11:36:17.785Z,17.91
2017-01-25T11:37:27.561Z,17.94
2017-01-25T11:38:38.267Z,17.95
2017-01-25T11:39:48.600Z,17.93
2017-01-25T11:40:58.912Z,17.91
2017-01-25T11:42:09.626Z,17.86
2017-01-25T11:43:20.614Z,18
2017-01-25T11:44:30.542Z,17.94
2017-01-25T11:45:40.472Z,17.95
2017-01-25T11:46:50.805Z,18.05
2017-01-25T11:48:01.583Z,18.05
2017-01-25T11:49:12.245Z,17.95
2017-01-25T11:50:22.608Z,17.98
2017-01-25T11:51:32.988Z,18.02
2017-01-25T11:52:43.346Z,18
2017-01-25T11:53:52.896Z,18.03
2017-01-25T11:55:03.873Z,18
2017-01-25T11:56:14.596Z,17.94
2017-01-25T11:57:25.324Z,17.97
2017-01-25T11:58:35.256Z,17.97
2017-01-25T11:59:45.186Z,17.93
2017-01-25T12:00:56.167Z,17.93
2017-01-25T12:02:05.705Z,17.91
2017-01-25T12:03:16.025Z,17.94
2017-01-25T12:04:26.328Z,17.93
2017-01-25T12:05:37.064Z,17.95
2017-01-25T12:06:47.643Z,17.97
2017-01-25T12:07:57.580Z,17.95
2017-01-25T12:09:08.302Z,17.95
2017-01-25T12:10:18.232Z,17.94
2017-01-25T12:11:28.175Z,17.93
2017-01-25T12:12:38.801Z,17.98
2017-01-25T12:13:49.527Z,17.94
2017-01-25T12:15:00.254Z,17.94
2017-01-25T12:16:10.975Z,18.02
2017-01-25T12:17:21.295Z,17.94
2017-01-25T12:18:31.903Z,17.97
2017-01-25T12:19:42.236Z,17.98
2017-01-25T12:20:52.577Z,17.98
2017-01-25T12:22:02.943Z,17.97
2017-01-25T12:23:13.294Z,18
2017-01-25T12:24:23.909Z,17.97
2017-01-25T12:25:34.656Z,17.93
2017-01-25T12:26:44.187Z,18
2017-01-25T12:27:54.509Z,17.95
2017-01-25T12:29:05.482Z,17.97
2017-01-25T12:30:16.474Z,17.95
2017-01-25T12:31:26.411Z,17.95
2017-01-25T12:32:36.742Z,18.02
2017-01-25T12:33:47.072Z,17.95
2017-01-25T12:34:57.425Z,17.98
2017-01-25T12:36:08.091Z,18.02
2017-01-25T12:37:18.011Z,17.93
2017-01-25T12:38:28.730Z,18.02
2017-01-25T12:39:39.046Z,17.98
2017-01-25T12:40:48.965Z,17.9
2017-01-25T12:41:59.942Z,17.94
2017-01-25T12:43:10.265Z,17.91
2017-01-25T12:44:20.600Z,17.91
2017-01-25T12:45:30.522Z,17.91
2017-01-25T12:46:41.254Z,17.93
2017-01-25T12:47:52.268Z,17.88
2017-01-25T12:49:02.602Z,17.9
2017-01-25T12:50:13.343Z,17.86
2017-01-25T12:51:24.057Z,17.86
2017-01-25T12:52:34.017Z,17.9
2017-01-25T12:53:44.607Z,17.9
2017-01-25T12:54:54.957Z,17.84
2017-01-25T12:56:04.864Z,17.82
2017-01-25T12:57:15.173Z,17.76
2017-01-25T12:58:25.498Z,17.76
2017-01-25T12:59:36.532Z,17.73
2017-01-25T13:00:46.441Z,17.73
2017-01-25T13:01:56.774Z,17.75
2017-01-25T13:03:07.139Z,17.8
2017-01-25T13:04:17.447Z,17.78
2017-01-25T13:05:28.067Z,17.8
2017-01-25T13:06:38.787Z,17.86
2017-01-25T13:07:49.501Z,17.94
2017-01-25T13:08:59.820Z,17.86
2017-01-25T13:10:10.139Z,17.84
2017-01-25T13:11:20.749Z,17.84
2017-01-25T13:12:30.656Z,17.87
2017-01-25T13:13:41.366Z,17.79
2017-01-25T13:14:52.107Z,17.79
2017-01-25T13:16:02.828Z,17.79
2017-01-25T13:17:13.842Z,17.79
2017-01-25T13:18:24.563Z,17.82
2017-01-25T13:19:35.287Z,17.8
2017-01-25T13:20:45.649Z,17.75
2017-01-25T13:21:56.348Z,17.72
2017-01-25T13:23:07.343Z,17.8
2017-01-25T13:24:17.668Z,17.72
2017-01-25T13:25:28.387Z,17.72
2017-01-25T13:26:39.126Z,17.8
2017-01-25T13:27:49.446Z,17.71
2017-01-25T13:29:00.020Z,17.71
2017-01-25T13:30:10.337Z,17.75
2017-01-25T13:31:20.656Z,17.71
2017-01-25T13:32:30.593Z,17.73
2017-01-25T13:33:40.522Z,17.73
2017-01-25T13:34:50.296Z,17.76
2017-01-25T13:36:01.020Z,17.66
2017-01-25T13:37:11.779Z,17.75
2017-01-25T13:38:21.687Z,17.82
2017-01-25T13:39:31.998Z,17.78
2017-01-25T13:40:42.714Z,17.72
2017-01-25T13:41:53.047Z,17.75
2017-01-25T13:43:03.373Z,17.72
2017-01-25T13:44:13.415Z,17.76
2017-01-25T13:45:23.745Z,17.73
2017-01-25T13:46:34.766Z,17.72
2017-01-25T13:47:45.089Z,17.71
2017-01-25T13:48:55.410Z,17.73
2017-01-25T13:50:05.387Z,17.68
2017-01-25T13:51:15.337Z,17.69
2017-01-25T13:52:25.963Z,17.75
2017-01-25T13:53:36.293Z,17.73
2017-01-25T13:54:47.039Z,17.76
2017-01-25T13:55:57.365Z,17.73
2017-01-25T13:57:07.702Z,17.73
2017-01-25T13:58:18.713Z,17.76
2017-01-25T13:59:29.037Z,17.68
2017-01-25T14:00:39.350Z,17.82
2017-01-25T14:01:49.660Z,17.78
2017-01-25T14:03:00.377Z,17.75
2017-01-25T14:04:10.995Z,17.78
2017-01-25T14:05:21.707Z,17.72
2017-01-25T14:06:31.634Z,17.76
2017-01-25T14:07:41.578Z,17.78
2017-01-25T14:08:51.891Z,17.79
2017-01-25T14:10:02.112Z,17.71
2017-01-25T14:11:12.835Z,17.79
2017-01-25T14:12:23.165Z,17.73
2017-01-25T14:13:33.494Z,17.75
2017-01-25T14:14:43.446Z,17.82
2017-01-25T14:15:54.060Z,17.84
2017-01-25T14:17:04.772Z,17.91
2017-01-25T14:18:15.107Z,17.91
2017-01-25T14:19:25.833Z,17.91
2017-01-25T14:20:36.541Z,17.82
2017-01-25T14:21:47.559Z,17.86
2017-01-25T14:22:57.882Z,17.88
2017-01-25T14:24:08.637Z,17.87
2017-01-25T14:25:18.587Z,17.88
2017-01-25T14:26:28.507Z,17.82
2017-01-25T14:27:38.695Z,17.82
2017-01-25T14:28:48.625Z,17.88
2017-01-25T14:29:59.347Z,17.84
2017-01-25T14:31:09.723Z,17.82
2017-01-25T14:32:20.453Z,17.79
2017-01-25T14:33:31.433Z,17.84
2017-01-25T14:34:41.356Z,17.82
2017-01-25T14:35:51.270Z,17.84
2017-01-25T14:37:01.995Z,17.8
2017-01-25T14:38:12.304Z,17.9
2017-01-25T14:39:22.511Z,17.79
2017-01-25T14:40:32.823Z,17.88
2017-01-25T14:41:43.119Z,17.79
2017-01-25T14:42:53.021Z,17.79
2017-01-25T14:44:03.321Z,17.73
2017-01-25T14:45:13.858Z,17.76
2017-01-25T14:46:22.968Z,17.76
2017-01-25T14:47:33.259Z,17.78
2017-01-25T14:48:42.767Z,17.72
2017-01-25T14:49:52.680Z,17.78
2017-01-25T14:51:03.664Z,17.72
2017-01-25T14:52:13.573Z,17.73
2017-01-25T14:53:23.517Z,17.76
2017-01-25T14:54:33.849Z,17.73
2017-01-25T14:55:43.801Z,17.73
2017-01-25T14:56:53.989Z,17.76
2017-01-25T14:58:04.686Z,17.71
2017-01-25T14:59:14.991Z,17.78
2017-01-25T15:00:25.701Z,17.76
2017-01-25T15:01:35.596Z,17.79
2017-01-25T15:02:46.544Z,17.75
2017-01-25T15:03:56.446Z,17.84
2017-01-25T15:05:06.763Z,17.78
2017-01-25T15:06:16.268Z,17.75
2017-01-25T15:07:26.571Z,17.72
2017-01-25T15:08:36.707Z,17.69